sensor_id;sensor_type;location;lat;lon;timestamp;P1;durP1;ratioP1;P2;durP2;ratioP2
23336;SDS011;11840;45.414;12.372;2023-06-24T04:53:20;6.32;;;3.15;;
23336;SDS011;11840;45.414;12.372;2023-06-24T04:55:45;6.22;;;3.83;;
23336;SDS011;11840;45.414;12.372;2023-06-24T04:58:11;5.63;;;3.40;;
23336;SDS011;11840;45.414;12.372;2023-06-24T05:00:37;6.20;;;3.78;;
23336;SDS011;11840;45.414;12.372;2023-06-24T05:03:03;7.70;;;3.17;;
23336;SDS011;11840;45.414;12.372;2023-06-24T05:05:29;8.00;;;3.33;;
23336;SDS011;11840;45.414;12.372;2023-06-24T05:07:55;7.28;;;3.33;;
23336;SDS011;11840;45.414;12.372;2023-06-24T05:10:21;6.85;;;3.35;;
23336;SDS011;11840;45.414;12.372;2023-06-24T05:12:47;7.25;;;3.35;;
23336;SDS011;11840;45.414;12.372;2023-06-24T05:15:13;6.57;;;3.45;;
23336;SDS011;11840;45.414;12.372;2023-06-24T05:17:39;6.75;;;3.70;;
23336;SDS011;11840;45.414;12.372;2023-06-24T05:20:05;8.55;;;3.63;;
23336;SDS011;11840;45.414;12.372;2023-06-24T05:22:31;6.68;;;3.60;;
23336;SDS011;11840;45.414;12.372;2023-06-24T05:24:58;8.52;;;3.88;;
23336;SDS011;11840;45.414;12.372;2023-06-24T05:27:24;5.15;;;3.25;;
23336;SDS011;11840;45.414;12.372;2023-06-24T05:29:50;6.50;;;3.22;;
23336;SDS011;11840;45.414;12.372;2023-06-24T05:32:16;5.97;;;3.75;;
23336;SDS011;11840;45.414;12.372;2023-06-24T05:34:42;7.20;;;3.53;;
23336;SDS011;11840;45.414;12.372;2023-06-24T05:37:08;7.65;;;3.67;;
23336;SDS011;11840;45.414;12.372;2023-06-24T05:39:34;4.82;;;3.05;;
23336;SDS011;11840;45.414;12.372;2023-06-24T05:42:00;6.70;;;3.30;;
23336;SDS011;11840;45.414;12.372;2023-06-24T05:44:25;9.25;;;3.78;;
23336;SDS011;11840;45.414;12.372;2023-06-24T05:46:50;8.63;;;3.95;;
23336;SDS011;11840;45.414;12.372;2023-06-24T05:49:16;4.88;;;2.97;;
23336;SDS011;11840;45.414;12.372;2023-06-24T05:51:43;6.32;;;3.22;;
23336;SDS011;11840;45.414;12.372;2023-06-24T05:54:08;7.03;;;3.63;;
23336;SDS011;11840;45.414;12.372;2023-06-24T05:56:34;6.13;;;3.38;;
23336;SDS011;11840;45.414;12.372;2023-06-24T05:59:02;6.22;;;3.53;;
23336;SDS011;11840;45.414;12.372;2023-06-24T06:01:27;8.98;;;3.40;;
23336;SDS011;11840;45.414;12.372;2023-06-24T06:03:54;10.68;;;3.80;;
23336;SDS011;11840;45.414;12.372;2023-06-24T06:06:19;5.72;;;3.50;;
23336;SDS011;11840;45.414;12.372;2023-06-24T06:08:47;8.40;;;3.20;;
23336;SDS011;11840;45.414;12.372;2023-06-24T06:11:12;8.43;;;3.40;;
23336;SDS011;11840;45.414;12.372;2023-06-24T06:13:39;7.05;;;3.20;;
23336;SDS011;11840;45.414;12.372;2023-06-24T06:16:05;5.05;;;3.45;;
23336;SDS011;11840;45.414;12.372;2023-06-24T06:18:32;8.10;;;3.22;;
23336;SDS011;11840;45.414;12.372;2023-06-24T06:20:58;6.05;;;3.40;;
23336;SDS011;11840;45.414;12.372;2023-06-24T06:23:24;7.53;;;3.15;;
23336;SDS011;11840;45.414;12.372;2023-06-24T06:25:52;6.68;;;3.20;;
23336;SDS011;11840;45.414;12.372;2023-06-24T06:28:18;6.10;;;3.13;;
23336;SDS011;11840;45.414;12.372;2023-06-24T06:30:44;17.83;;;4.15;;
23336;SDS011;11840;45.414;12.372;2023-06-24T06:33:10;12.10;;;3.45;;
23336;SDS011;11840;45.414;12.372;2023-06-24T06:35:36;11.18;;;3.88;;
23336;SDS011;11840;45.414;12.372;2023-06-24T06:38:02;7.07;;;2.97;;
23336;SDS011;11840;45.414;12.372;2023-06-24T06:40:28;10.73;;;3.10;;
23336;SDS011;11840;45.414;12.372;2023-06-24T06:42:54;8.15;;;3.13;;
23336;SDS011;11840;45.414;12.372;2023-06-24T06:45:20;5.95;;;2.85;;
23336;SDS011;11840;45.414;12.372;2023-06-24T06:47:46;4.63;;;3.13;;
23336;SDS011;11840;45.414;12.372;2023-06-24T06:50:12;7.13;;;2.97;;
23336;SDS011;11840;45.414;12.372;2023-06-24T06:52:38;6.55;;;3.15;;
23336;SDS011;11840;45.414;12.372;2023-06-24T06:55:04;5.45;;;2.83;;
23336;SDS011;11840;45.414;12.372;2023-06-24T06:57:30;3.92;;;2.88;;
23336;SDS011;11840;45.414;12.372;2023-06-24T06:59:57;5.93;;;2.90;;
23336;SDS011;11840;45.414;12.372;2023-06-24T07:02:22;6.30;;;2.90;;
23336;SDS011;11840;45.414;12.372;2023-06-24T07:04:48;7.60;;;2.63;;
23336;SDS011;11840;45.414;12.372;2023-06-24T07:07:14;5.70;;;3.05;;
23336;SDS011;11840;45.414;12.372;2023-06-24T07:09:39;5.72;;;2.80;;
23336;SDS011;11840;45.414;12.372;2023-06-24T07:12:06;5.63;;;2.50;;
23336;SDS011;11840;45.414;12.372;2023-06-24T07:14:32;8.40;;;3.28;;
23336;SDS011;11840;45.414;12.372;2023-06-24T07:16:58;6.40;;;3.38;;
23336;SDS011;11840;45.414;12.372;2023-06-24T07:19:24;6.75;;;3.15;;
23336;SDS011;11840;45.414;12.372;2023-06-24T07:21:51;6.00;;;2.67;;
23336;SDS011;11840;45.414;12.372;2023-06-24T07:24:17;4.38;;;2.70;;
23336;SDS011;11840;45.414;12.372;2023-06-24T07:26:43;4.95;;;2.92;;
23336;SDS011;11840;45.414;12.372;2023-06-24T07:29:09;8.73;;;3.03;;
23336;SDS011;11840;45.414;12.372;2023-06-24T07:31:35;5.70;;;2.78;;
23336;SDS011;11840;45.414;12.372;2023-06-24T07:34:01;5.03;;;3.10;;
23336;SDS011;11840;45.414;12.372;2023-06-24T07:36:27;9.05;;;3.10;;
23336;SDS011;11840;45.414;12.372;2023-06-24T07:38:53;5.50;;;2.80;;
23336;SDS011;11840;45.414;12.372;2023-06-24T07:41:20;6.18;;;2.53;;
23336;SDS011;11840;45.414;12.372;2023-06-24T07:43:45;6.53;;;2.20;;
23336;SDS011;11840;45.414;12.372;2023-06-24T07:46:11;4.22;;;2.47;;
23336;SDS011;11840;45.414;12.372;2023-06-24T07:48:37;5.60;;;2.40;;
23336;SDS011;11840;45.414;12.372;2023-06-24T07:51:03;6.32;;;2.80;;
23336;SDS011;11840;45.414;12.372;2023-06-24T07:53:30;7.95;;;2.70;;
23336;SDS011;11840;45.414;12.372;2023-06-24T07:55:56;4.75;;;2.40;;
23336;SDS011;11840;45.414;12.372;2023-06-24T07:58:22;13.65;;;3.30;;
23336;SDS011;11840;45.414;12.372;2023-06-24T08:00:48;17.20;;;3.65;;
23336;SDS011;11840;45.414;12.372;2023-06-24T08:03:14;14.13;;;3.05;;
23336;SDS011;11840;45.414;12.372;2023-06-24T08:05:40;9.45;;;2.47;;
23336;SDS011;11840;45.414;12.372;2023-06-24T08:08:05;11.85;;;3.13;;
23336;SDS011;11840;45.414;12.372;2023-06-24T08:10:32;10.68;;;2.60;;
23336;SDS011;11840;45.414;12.372;2023-06-24T08:12:58;5.93;;;2.42;;
23336;SDS011;11840;45.414;12.372;2023-06-24T08:15:24;5.20;;;2.47;;
23336;SDS011;11840;45.414;12.372;2023-06-24T08:17:51;6.07;;;2.47;;
23336;SDS011;11840;45.414;12.372;2023-06-24T08:20:17;6.57;;;2.15;;
23336;SDS011;11840;45.414;12.372;2023-06-24T08:22:43;4.40;;;2.40;;
23336;SDS011;11840;45.414;12.372;2023-06-24T08:25:09;6.32;;;2.70;;
23336;SDS011;11840;45.414;12.372;2023-06-24T08:27:35;11.07;;;3.08;;
23336;SDS011;11840;45.414;12.372;2023-06-24T08:30:03;5.93;;;2.70;;
23336;SDS011;11840;45.414;12.372;2023-06-24T08:32:29;6.05;;;2.45;;
23336;SDS011;11840;45.414;12.372;2023-06-24T08:34:56;4.13;;;2.38;;
23336;SDS011;11840;45.414;12.372;2023-06-24T08:37:22;5.20;;;2.50;;
23336;SDS011;11840;45.414;12.372;2023-06-24T08:39:49;6.45;;;2.70;;
23336;SDS011;11840;45.414;12.372;2023-06-24T08:42:15;10.90;;;2.53;;
23336;SDS011;11840;45.414;12.372;2023-06-24T08:44:40;7.53;;;2.38;;
23336;SDS011;11840;45.414;12.372;2023-06-24T08:47:07;6.10;;;2.70;;
23336;SDS011;11840;45.414;12.372;2023-06-24T08:49:34;7.78;;;2.72;;
23336;SDS011;11840;45.414;12.372;2023-06-24T08:54:26;9.23;;;2.75;;
23336;SDS011;11840;45.414;12.372;2023-06-24T08:56:53;4.80;;;2.78;;
23336;SDS011;11840;45.414;12.372;2023-06-24T08:59:18;7.95;;;2.78;;
23336;SDS011;11840;45.414;12.372;2023-06-24T09:01:46;5.63;;;2.92;;
23336;SDS011;11840;45.414;12.372;2023-06-24T09:04:12;3.97;;;2.60;;
23336;SDS011;11840;45.414;12.372;2023-06-24T09:06:38;3.80;;;2.65;;
23336;SDS011;11840;45.414;12.372;2023-06-24T09:09:03;4.50;;;2.72;;
23336;SDS011;11840;45.414;12.372;2023-06-24T09:11:29;3.35;;;2.58;;
23336;SDS011;11840;45.414;12.372;2023-06-24T09:13:58;7.43;;;2.83;;
23336;SDS011;11840;45.414;12.372;2023-06-24T09:16:24;5.93;;;2.60;;
23336;SDS011;11840;45.414;12.372;2023-06-24T09:18:50;3.63;;;2.55;;
23336;SDS011;11840;45.414;12.372;2023-06-24T09:21:24;3.47;;;2.47;;
23336;SDS011;11840;45.414;12.372;2023-06-24T09:23:52;4.72;;;2.88;;
23336;SDS011;11840;45.414;12.372;2023-06-24T09:26:18;4.35;;;2.90;;
23336;SDS011;11840;45.414;12.372;2023-06-24T09:28:47;4.38;;;3.05;;
23336;SDS011;11840;45.414;12.372;2023-06-24T09:31:13;4.93;;;3.17;;
23336;SDS011;11840;45.414;12.372;2023-06-24T09:33:39;4.68;;;2.85;;
23336;SDS011;11840;45.414;12.372;2023-06-24T09:36:05;5.93;;;2.97;;
23336;SDS011;11840;45.414;12.372;2023-06-24T09:38:32;4.90;;;2.70;;
23336;SDS011;11840;45.414;12.372;2023-06-24T09:41:04;6.90;;;2.75;;
23336;SDS011;11840;45.414;12.372;2023-06-24T09:43:30;4.38;;;2.47;;
23336;SDS011;11840;45.414;12.372;2023-06-24T09:45:59;5.20;;;3.03;;
23336;SDS011;11840;45.414;12.372;2023-06-24T09:48:25;5.20;;;2.60;;
23336;SDS011;11840;45.414;12.372;2023-06-24T09:50:50;8.20;;;2.80;;
23336;SDS011;11840;45.414;12.372;2023-06-24T09:53:16;4.05;;;2.40;;
23336;SDS011;11840;45.414;12.372;2023-06-24T09:55:43;3.25;;;2.33;;
23336;SDS011;11840;45.414;12.372;2023-06-24T09:58:12;4.70;;;2.60;;
23336;SDS011;11840;45.414;12.372;2023-06-24T10:00:39;7.88;;;2.72;;
23336;SDS011;11840;45.414;12.372;2023-06-24T10:03:05;5.57;;;2.38;;
23336;SDS011;11840;45.414;12.372;2023-06-24T10:05:31;5.32;;;2.50;;
23336;SDS011;11840;45.414;12.372;2023-06-24T10:07:57;5.38;;;2.67;;
23336;SDS011;11840;45.414;12.372;2023-06-24T10:10:22;7.18;;;2.70;;
23336;SDS011;11840;45.414;12.372;2023-06-24T10:12:48;4.75;;;2.63;;
23336;SDS011;11840;45.414;12.372;2023-06-24T10:15:14;5.72;;;2.67;;
23336;SDS011;11840;45.414;12.372;2023-06-24T10:17:41;4.63;;;2.20;;
23336;SDS011;11840;45.414;12.372;2023-06-24T10:20:07;6.00;;;2.30;;
23336;SDS011;11840;45.414;12.372;2023-06-24T10:22:33;5.03;;;2.38;;
23336;SDS011;11840;45.414;12.372;2023-06-24T10:25:02;6.65;;;2.60;;
23336;SDS011;11840;45.414;12.372;2023-06-24T10:27:28;3.38;;;2.40;;
23336;SDS011;11840;45.414;12.372;2023-06-24T10:30:01;5.57;;;2.30;;
23336;SDS011;11840;45.414;12.372;2023-06-24T10:32:39;3.95;;;2.17;;
23336;SDS011;11840;45.414;12.372;2023-06-24T10:35:07;5.70;;;2.30;;
23336;SDS011;11840;45.414;12.372;2023-06-24T10:37:33;6.35;;;2.40;;
23336;SDS011;11840;45.414;12.372;2023-06-24T10:39:59;7.07;;;2.15;;
23336;SDS011;11840;45.414;12.372;2023-06-24T10:44:52;5.95;;;2.10;;
23336;SDS011;11840;45.414;12.372;2023-06-24T10:47:18;6.47;;;2.17;;
23336;SDS011;11840;45.414;12.372;2023-06-24T10:49:45;4.65;;;2.17;;
23336;SDS011;11840;45.414;12.372;2023-06-24T10:52:11;4.90;;;2.28;;
23336;SDS011;11840;45.414;12.372;2023-06-24T10:54:37;7.47;;;2.42;;
23336;SDS011;11840;45.414;12.372;2023-06-24T10:57:03;3.50;;;2.03;;
23336;SDS011;11840;45.414;12.372;2023-06-24T10:59:39;6.65;;;2.72;;
23336;SDS011;11840;45.414;12.372;2023-06-24T11:02:05;4.80;;;2.20;;
23336;SDS011;11840;45.414;12.372;2023-06-24T11:04:31;6.85;;;2.55;;
23336;SDS011;11840;45.414;12.372;2023-06-24T11:07:00;5.00;;;2.15;;
23336;SDS011;11840;45.414;12.372;2023-06-24T11:09:25;3.70;;;2.20;;
23336;SDS011;11840;45.414;12.372;2023-06-24T11:11:52;3.30;;;2.17;;
23336;SDS011;11840;45.414;12.372;2023-06-24T11:14:19;5.05;;;2.10;;
23336;SDS011;11840;45.414;12.372;2023-06-24T11:16:45;6.38;;;2.42;;
23336;SDS011;11840;45.414;12.372;2023-06-24T11:19:12;4.68;;;2.67;;
23336;SDS011;11840;45.414;12.372;2023-06-24T11:21:38;5.75;;;2.63;;
23336;SDS011;11840;45.414;12.372;2023-06-24T11:24:04;25.23;;;13.60;;
23336;SDS011;11840;45.414;12.372;2023-06-24T11:26:30;11.15;;;5.95;;
23336;SDS011;11840;45.414;12.372;2023-06-24T11:28:56;6.65;;;2.47;;
23336;SDS011;11840;45.414;12.372;2023-06-24T11:31:25;3.58;;;2.13;;
23336;SDS011;11840;45.414;12.372;2023-06-24T11:33:51;3.40;;;2.20;;
23336;SDS011;11840;45.414;12.372;2023-06-24T11:36:19;5.97;;;2.20;;
23336;SDS011;11840;45.414;12.372;2023-06-24T11:38:46;3.92;;;2.15;;
23336;SDS011;11840;45.414;12.372;2023-06-24T11:41:12;6.03;;;2.63;;
23336;SDS011;11840;45.414;12.372;2023-06-24T11:43:43;4.03;;;2.53;;
23336;SDS011;11840;45.414;12.372;2023-06-24T11:46:09;4.07;;;2.55;;
23336;SDS011;11840;45.414;12.372;2023-06-24T11:48:41;5.60;;;2.38;;
23336;SDS011;11840;45.414;12.372;2023-06-24T11:51:13;5.10;;;2.20;;
23336;SDS011;11840;45.414;12.372;2023-06-24T11:53:43;4.43;;;2.25;;
23336;SDS011;11840;45.414;12.372;2023-06-24T11:56:09;7.00;;;2.58;;
23336;SDS011;11840;45.414;12.372;2023-06-24T11:58:35;3.92;;;1.85;;
23336;SDS011;11840;45.414;12.372;2023-06-24T12:01:01;5.63;;;2.40;;
23336;SDS011;11840;45.414;12.372;2023-06-24T12:03:27;5.82;;;2.00;;
23336;SDS011;11840;45.414;12.372;2023-06-24T12:05:53;8.52;;;1.98;;
23336;SDS011;11840;45.414;12.372;2023-06-24T12:08:19;4.03;;;1.90;;
23336;SDS011;11840;45.414;12.372;2023-06-24T12:10:45;5.00;;;2.28;;
23336;SDS011;11840;45.414;12.372;2023-06-24T12:13:11;5.18;;;1.80;;
23336;SDS011;11840;45.414;12.372;2023-06-24T12:15:37;3.08;;;1.63;;
23336;SDS011;11840;45.414;12.372;2023-06-24T12:18:02;3.25;;;1.35;;
23336;SDS011;11840;45.414;12.372;2023-06-24T12:20:28;3.22;;;1.58;;
23336;SDS011;11840;45.414;12.372;2023-06-24T12:22:54;3.90;;;1.60;;
23336;SDS011;11840;45.414;12.372;2023-06-24T12:25:20;3.83;;;1.83;;
23336;SDS011;11840;45.414;12.372;2023-06-24T12:27:46;2.55;;;1.45;;
23336;SDS011;11840;45.414;12.372;2023-06-24T12:30:12;3.58;;;1.50;;
23336;SDS011;11840;45.414;12.372;2023-06-24T12:32:38;5.93;;;1.50;;
23336;SDS011;11840;45.414;12.372;2023-06-24T12:35:04;2.78;;;1.60;;
23336;SDS011;11840;45.414;12.372;2023-06-24T12:37:31;2.35;;;1.40;;
23336;SDS011;11840;45.414;12.372;2023-06-24T12:39:57;3.75;;;1.20;;
23336;SDS011;11840;45.414;12.372;2023-06-24T12:42:22;2.05;;;1.27;;
23336;SDS011;11840;45.414;12.372;2023-06-24T12:44:48;3.83;;;1.77;;
23336;SDS011;11840;45.414;12.372;2023-06-24T12:47:14;3.50;;;1.20;;
23336;SDS011;11840;45.414;12.372;2023-06-24T12:49:39;2.53;;;1.60;;
23336;SDS011;11840;45.414;12.372;2023-06-24T12:52:06;5.53;;;1.75;;
23336;SDS011;11840;45.414;12.372;2023-06-24T12:54:33;5.10;;;1.27;;
23336;SDS011;11840;45.414;12.372;2023-06-24T12:56:59;2.72;;;1.17;;
23336;SDS011;11840;45.414;12.372;2023-06-24T12:59:26;2.38;;;1.42;;
23336;SDS011;11840;45.414;12.372;2023-06-24T13:01:52;2.00;;;1.17;;
23336;SDS011;11840;45.414;12.372;2023-06-24T13:04:18;3.20;;;1.35;;
23336;SDS011;11840;45.414;12.372;2023-06-24T13:06:45;3.92;;;1.40;;
23336;SDS011;11840;45.414;12.372;2023-06-24T13:09:12;3.55;;;1.20;;
23336;SDS011;11840;45.414;12.372;2023-06-24T13:11:38;3.15;;;1.50;;
23336;SDS011;11840;45.414;12.372;2023-06-24T13:14:05;3.55;;;1.50;;
23336;SDS011;11840;45.414;12.372;2023-06-24T13:16:31;1.80;;;1.08;;
23336;SDS011;11840;45.414;12.372;2023-06-24T13:18:57;4.30;;;1.40;;
23336;SDS011;11840;45.414;12.372;2023-06-24T13:21:23;3.03;;;1.27;;
23336;SDS011;11840;45.414;12.372;2023-06-24T13:23:50;3.08;;;1.23;;
23336;SDS011;11840;45.414;12.372;2023-06-24T13:26:16;4.65;;;1.40;;
23336;SDS011;11840;45.414;12.372;2023-06-24T13:28:42;3.55;;;1.40;;
23336;SDS011;11840;45.414;12.372;2023-06-24T13:31:08;2.80;;;1.50;;
23336;SDS011;11840;45.414;12.372;2023-06-24T13:33:34;2.38;;;1.30;;
23336;SDS011;11840;45.414;12.372;2023-06-24T13:36:01;2.85;;;1.00;;
23336;SDS011;11840;45.414;12.372;2023-06-24T13:38:28;3.00;;;1.30;;
23336;SDS011;11840;45.414;12.372;2023-06-24T13:40:54;2.83;;;1.30;;
23336;SDS011;11840;45.414;12.372;2023-06-24T13:43:20;4.20;;;1.55;;
23336;SDS011;11840;45.414;12.372;2023-06-24T13:45:46;3.80;;;1.20;;
23336;SDS011;11840;45.414;12.372;2023-06-24T13:48:11;1.65;;;1.13;;
23336;SDS011;11840;45.414;12.372;2023-06-24T13:50:37;2.20;;;1.20;;
23336;SDS011;11840;45.414;12.372;2023-06-24T13:53:03;2.67;;;1.10;;
23336;SDS011;11840;45.414;12.372;2023-06-24T13:55:30;2.05;;;1.00;;
23336;SDS011;11840;45.414;12.372;2023-06-24T13:57:56;2.33;;;1.10;;
23336;SDS011;11840;45.414;12.372;2023-06-24T14:00:21;3.00;;;1.17;;
23336;SDS011;11840;45.414;12.372;2023-06-24T14:02:48;3.13;;;1.42;;
23336;SDS011;11840;45.414;12.372;2023-06-24T14:05:14;3.67;;;1.10;;
23336;SDS011;11840;45.414;12.372;2023-06-24T14:07:40;3.50;;;1.25;;
23336;SDS011;11840;45.414;12.372;2023-06-24T14:10:06;1.65;;;1.23;;
23336;SDS011;11840;45.414;12.372;2023-06-24T14:12:32;2.03;;;1.20;;
23336;SDS011;11840;45.414;12.372;2023-06-24T14:14:58;2.30;;;1.25;;
23336;SDS011;11840;45.414;12.372;2023-06-24T14:17:24;4.70;;;1.30;;
23336;SDS011;11840;45.414;12.372;2023-06-24T14:19:50;3.45;;;1.60;;
23336;SDS011;11840;45.414;12.372;2023-06-24T14:22:16;2.83;;;1.42;;
23336;SDS011;11840;45.414;12.372;2023-06-24T14:24:42;3.22;;;1.23;;
23336;SDS011;11840;45.414;12.372;2023-06-24T14:27:08;2.95;;;1.30;;
23336;SDS011;11840;45.414;12.372;2023-06-24T14:29:35;2.42;;;1.20;;
23336;SDS011;11840;45.414;12.372;2023-06-24T14:32:01;2.38;;;1.05;;
23336;SDS011;11840;45.414;12.372;2023-06-24T14:34:26;2.97;;;1.40;;
23336;SDS011;11840;45.414;12.372;2023-06-24T14:36:55;2.25;;;1.35;;
23336;SDS011;11840;45.414;12.372;2023-06-24T14:39:21;3.25;;;1.38;;
23336;SDS011;11840;45.414;12.372;2023-06-24T14:41:47;1.98;;;1.00;;
23336;SDS011;11840;45.414;12.372;2023-06-24T14:44:13;2.25;;;1.08;;
23336;SDS011;11840;45.414;12.372;2023-06-24T14:46:39;2.45;;;1.15;;
23336;SDS011;11840;45.414;12.372;2023-06-24T14:49:05;2.88;;;1.25;;
23336;SDS011;11840;45.414;12.372;2023-06-24T14:51:31;3.03;;;1.20;;
23336;SDS011;11840;45.414;12.372;2023-06-24T14:53:56;2.50;;;1.17;;
23336;SDS011;11840;45.414;12.372;2023-06-24T14:56:23;3.03;;;1.27;;
23336;SDS011;11840;45.414;12.372;2023-06-24T14:58:48;2.83;;;1.25;;
23336;SDS011;11840;45.414;12.372;2023-06-24T15:01:14;2.47;;;1.10;;
23336;SDS011;11840;45.414;12.372;2023-06-24T15:03:41;5.70;;;1.27;;
23336;SDS011;11840;45.414;12.372;2023-06-24T15:06:06;3.65;;;1.10;;
23336;SDS011;11840;45.414;12.372;2023-06-24T15:08:32;4.93;;;1.10;;
23336;SDS011;11840;45.414;12.372;2023-06-24T15:10:58;2.28;;;1.23;;
23336;SDS011;11840;45.414;12.372;2023-06-24T15:13:25;2.10;;;1.10;;
23336;SDS011;11840;45.414;12.372;2023-06-24T15:15:51;1.90;;;1.15;;
23336;SDS011;11840;45.414;12.372;2023-06-24T15:18:21;5.18;;;1.20;;
23336;SDS011;11840;45.414;12.372;2023-06-24T15:20:47;1.23;;;1.00;;
23336;SDS011;11840;45.414;12.372;2023-06-24T15:23:13;3.70;;;1.92;;
23336;SDS011;11840;45.414;12.372;2023-06-24T15:25:39;4.78;;;1.27;;
23336;SDS011;11840;45.414;12.372;2023-06-24T15:28:05;1.67;;;0.90;;
23336;SDS011;11840;45.414;12.372;2023-06-24T15:30:31;4.68;;;2.08;;
23336;SDS011;11840;45.414;12.372;2023-06-24T15:32:57;1.73;;;1.00;;
23336;SDS011;11840;45.414;12.372;2023-06-24T15:35:22;7.00;;;1.50;;
23336;SDS011;11840;45.414;12.372;2023-06-24T15:37:48;3.75;;;1.73;;
23336;SDS011;11840;45.414;12.372;2023-06-24T15:40:14;7.38;;;1.42;;
23336;SDS011;11840;45.414;12.372;2023-06-24T15:42:40;6.93;;;1.10;;
23336;SDS011;11840;45.414;12.372;2023-06-24T15:45:05;2.42;;;1.08;;
23336;SDS011;11840;45.414;12.372;2023-06-24T15:47:32;3.17;;;1.10;;
23336;SDS011;11840;45.414;12.372;2023-06-24T15:49:59;3.03;;;1.20;;
23336;SDS011;11840;45.414;12.372;2023-06-24T15:52:25;4.20;;;1.00;;
23336;SDS011;11840;45.414;12.372;2023-06-24T15:54:51;3.17;;;1.00;;
23336;SDS011;11840;45.414;12.372;2023-06-24T15:57:17;2.72;;;0.98;;
23336;SDS011;11840;45.414;12.372;2023-06-24T15:59:43;10.27;;;2.15;;
23336;SDS011;11840;45.414;12.372;2023-06-24T16:02:09;8.52;;;1.35;;
23336;SDS011;11840;45.414;12.372;2023-06-24T16:04:35;2.15;;;1.10;;
23336;SDS011;11840;45.414;12.372;2023-06-24T16:07:01;3.75;;;1.20;;
23336;SDS011;11840;45.414;12.372;2023-06-24T16:09:27;2.50;;;1.00;;
23336;SDS011;11840;45.414;12.372;2023-06-24T16:11:54;5.97;;;1.02;;
23336;SDS011;11840;45.414;12.372;2023-06-24T16:14:19;2.92;;;1.40;;
23336;SDS011;11840;45.414;12.372;2023-06-24T16:16:45;5.57;;;1.30;;
23336;SDS011;11840;45.414;12.372;2023-06-24T16:19:11;3.42;;;1.08;;
23336;SDS011;11840;45.414;12.372;2023-06-24T16:21:37;4.60;;;1.17;;
23336;SDS011;11840;45.414;12.372;2023-06-24T16:24:03;3.30;;;1.15;;
23336;SDS011;11840;45.414;12.372;2023-06-24T16:26:29;4.43;;;1.00;;
23336;SDS011;11840;45.414;12.372;2023-06-24T16:28:54;3.75;;;1.20;;
23336;SDS011;11840;45.414;12.372;2023-06-24T16:31:20;6.70;;;1.02;;
23336;SDS011;11840;45.414;12.372;2023-06-24T16:33:46;3.58;;;1.20;;
23336;SDS011;11840;45.414;12.372;2023-06-24T16:36:13;1.70;;;0.95;;
23336;SDS011;11840;45.414;12.372;2023-06-24T16:38:38;4.78;;;1.27;;
23336;SDS011;11840;45.414;12.372;2023-06-24T16:41:04;3.20;;;1.20;;
23336;SDS011;11840;45.414;12.372;2023-06-24T16:43:30;3.85;;;1.10;;
23336;SDS011;11840;45.414;12.372;2023-06-24T16:45:56;4.22;;;1.20;;
23336;SDS011;11840;45.414;12.372;2023-06-24T16:48:21;2.95;;;1.00;;
23336;SDS011;11840;45.414;12.372;2023-06-24T16:50:47;4.72;;;1.23;;
23336;SDS011;11840;45.414;12.372;2023-06-24T16:53:14;2.38;;;0.90;;
23336;SDS011;11840;45.414;12.372;2023-06-24T16:55:40;8.48;;;1.10;;
23336;SDS011;11840;45.414;12.372;2023-06-24T16:58:07;2.10;;;1.00;;
23336;SDS011;11840;45.414;12.372;2023-06-24T17:00:32;4.80;;;1.30;;
23336;SDS011;11840;45.414;12.372;2023-06-24T17:02:58;2.33;;;1.20;;
23336;SDS011;11840;45.414;12.372;2023-06-24T17:05:24;4.80;;;1.08;;
23336;SDS011;11840;45.414;12.372;2023-06-24T17:07:50;3.03;;;0.73;;
23336;SDS011;11840;45.414;12.372;2023-06-24T17:10:15;4.40;;;1.02;;
23336;SDS011;11840;45.414;12.372;2023-06-24T17:12:41;3.70;;;0.90;;
23336;SDS011;11840;45.414;12.372;2023-06-24T17:15:07;2.13;;;1.00;;
23336;SDS011;11840;45.414;12.372;2023-06-24T17:17:32;3.67;;;0.90;;
23336;SDS011;11840;45.414;12.372;2023-06-24T17:19:59;2.03;;;0.85;;
23336;SDS011;11840;45.414;12.372;2023-06-24T17:22:25;2.85;;;1.15;;
23336;SDS011;11840;45.414;12.372;2023-06-24T17:24:52;4.05;;;0.85;;
23336;SDS011;11840;45.414;12.372;2023-06-24T17:27:17;3.80;;;0.95;;
23336;SDS011;11840;45.414;12.372;2023-06-24T17:29:43;4.30;;;0.85;;
23336;SDS011;11840;45.414;12.372;2023-06-24T17:32:09;2.22;;;0.98;;
23336;SDS011;11840;45.414;12.372;2023-06-24T17:34:35;2.42;;;0.98;;
23336;SDS011;11840;45.414;12.372;2023-06-24T17:37:01;3.15;;;1.05;;
23336;SDS011;11840;45.414;12.372;2023-06-24T17:39:27;3.50;;;1.05;;
23336;SDS011;11840;45.414;12.372;2023-06-24T17:41:53;2.33;;;0.90;;
23336;SDS011;11840;45.414;12.372;2023-06-24T17:44:19;2.22;;;0.80;;
23336;SDS011;11840;45.414;12.372;2023-06-24T17:46:45;3.70;;;1.10;;
23336;SDS011;11840;45.414;12.372;2023-06-24T17:49:12;2.85;;;1.10;;
23336;SDS011;11840;45.414;12.372;2023-06-24T17:51:39;1.45;;;0.80;;
23336;SDS011;11840;45.414;12.372;2023-06-24T17:54:05;5.25;;;1.60;;
23336;SDS011;11840;45.414;12.372;2023-06-24T17:56:30;4.82;;;0.80;;
23336;SDS011;11840;45.414;12.372;2023-06-24T17:58:57;3.42;;;0.90;;
23336;SDS011;11840;45.414;12.372;2023-06-24T18:01:22;4.70;;;0.90;;
23336;SDS011;11840;45.414;12.372;2023-06-24T18:03:50;1.80;;;0.80;;
23336;SDS011;11840;45.414;12.372;2023-06-24T18:06:16;5.63;;;0.63;;
23336;SDS011;11840;45.414;12.372;2023-06-24T18:08:42;4.25;;;0.70;;
23336;SDS011;11840;45.414;12.372;2023-06-24T18:11:08;4.90;;;0.65;;
23336;SDS011;11840;45.414;12.372;2023-06-24T18:13:33;3.10;;;0.88;;
23336;SDS011;11840;45.414;12.372;2023-06-24T18:16:00;4.55;;;1.30;;
23336;SDS011;11840;45.414;12.372;2023-06-24T18:18:25;1.58;;;0.60;;
23336;SDS011;11840;45.414;12.372;2023-06-24T18:20:51;2.85;;;0.77;;
23336;SDS011;11840;45.414;12.372;2023-06-24T18:23:17;1.98;;;0.65;;
23336;SDS011;11840;45.414;12.372;2023-06-24T18:25:42;1.58;;;0.73;;
23336;SDS011;11840;45.414;12.372;2023-06-24T18:28:09;4.45;;;1.05;;
23336;SDS011;11840;45.414;12.372;2023-06-24T18:30:35;5.47;;;0.88;;
23336;SDS011;11840;45.414;12.372;2023-06-24T18:33:01;2.20;;;0.70;;
23336;SDS011;11840;45.414;12.372;2023-06-24T18:35:27;3.63;;;1.00;;
23336;SDS011;11840;45.414;12.372;2023-06-24T18:37:54;1.75;;;0.90;;
23336;SDS011;11840;45.414;12.372;2023-06-24T18:40:19;3.25;;;1.00;;
23336;SDS011;11840;45.414;12.372;2023-06-24T18:42:45;2.78;;;1.30;;
23336;SDS011;11840;45.414;12.372;2023-06-24T18:45:11;3.58;;;1.08;;
23336;SDS011;11840;45.414;12.372;2023-06-24T18:47:36;4.43;;;0.90;;
23336;SDS011;11840;45.414;12.372;2023-06-24T18:50:04;5.70;;;1.35;;
23336;SDS011;11840;45.414;12.372;2023-06-24T18:52:30;3.33;;;1.30;;
23336;SDS011;11840;45.414;12.372;2023-06-24T18:54:56;3.45;;;1.02;;
23336;SDS011;11840;45.414;12.372;2023-06-24T18:57:21;2.28;;;1.00;;
23336;SDS011;11840;45.414;12.372;2023-06-24T18:59:47;3.28;;;0.80;;
23336;SDS011;11840;45.414;12.372;2023-06-24T19:02:13;6.03;;;1.27;;
23336;SDS011;11840;45.414;12.372;2023-06-24T19:04:41;3.88;;;1.02;;
23336;SDS011;11840;45.414;12.372;2023-06-24T19:07:07;2.75;;;0.90;;
23336;SDS011;11840;45.414;12.372;2023-06-24T19:09:32;5.80;;;1.00;;
23336;SDS011;11840;45.414;12.372;2023-06-24T19:11:58;2.80;;;1.17;;
23336;SDS011;11840;45.414;12.372;2023-06-24T19:14:24;2.60;;;0.95;;
23336;SDS011;11840;45.414;12.372;2023-06-24T19:16:51;4.43;;;2.10;;
23336;SDS011;11840;45.414;12.372;2023-06-24T19:19:17;4.00;;;0.80;;
23336;SDS011;11840;45.414;12.372;2023-06-24T19:21:42;4.20;;;0.88;;
23336;SDS011;11840;45.414;12.372;2023-06-24T19:24:08;4.38;;;0.98;;